sensor_id;sensor_type;location;lat;lon;timestamp;P1;durP1;ratioP1;P2;durP2;ratioP2
10007;SDS011;5043;41.766;26.204;2023-08-01T00:01:36;5.10;;;4.70;;
10007;SDS011;5043;41.766;26.204;2023-08-01T00:04:02;6.38;;;4.60;;
10007;SDS011;5043;41.766;26.204;2023-08-01T00:06:27;5.20;;;4.80;;
10007;SDS011;5043;41.766;26.204;2023-08-01T00:08:52;5.20;;;4.63;;
10007;SDS011;5043;41.766;26.204;2023-08-01T00:11:18;8.57;;;4.75;;
10007;SDS011;5043;41.766;26.204;2023-08-01T00:13:43;5.50;;;5.00;;
10007;SDS011;5043;41.766;26.204;2023-08-01T00:16:09;4.93;;;4.63;;
10007;SDS011;5043;41.766;26.204;2023-08-01T00:18:35;4.72;;;4.32;;
10007;SDS011;5043;41.766;26.204;2023-08-01T00:21:00;5.60;;;5.18;;
10007;SDS011;5043;41.766;26.204;2023-08-01T00:23:26;4.97;;;4.45;;
10007;SDS011;5043;41.766;26.204;2023-08-01T00:25:51;4.80;;;4.30;;
10007;SDS011;5043;41.766;26.204;2023-08-01T00:28:17;5.18;;;4.68;;
10007;SDS011;5043;41.766;26.204;2023-08-01T00:30:43;5.22;;;4.80;;
10007;SDS011;5043;41.766;26.204;2023-08-01T00:33:09;5.53;;;5.13;;
10007;SDS011;5043;41.766;26.204;2023-08-01T00:35:34;5.60;;;5.10;;
10007;SDS011;5043;41.766;26.204;2023-08-01T00:37:59;5.55;;;5.03;;
10007;SDS011;5043;41.766;26.204;2023-08-01T00:40:29;5.15;;;4.75;;
10007;SDS011;5043;41.766;26.204;2023-08-01T00:42:56;6.30;;;5.47;;
10007;SDS011;5043;41.766;26.204;2023-08-01T00:45:21;13.90;;;12.38;;
10007;SDS011;5043;41.766;26.204;2023-08-01T00:47:50;13.25;;;11.90;;
10007;SDS011;5043;41.766;26.204;2023-08-01T00:50:16;7.97;;;7.20;;
10007;SDS011;5043;41.766;26.204;2023-08-01T00:52:45;7.30;;;6.70;;
10007;SDS011;5043;41.766;26.204;2023-08-01T00:55:11;7.10;;;6.45;;
10007;SDS011;5043;41.766;26.204;2023-08-01T00:57:36;7.57;;;6.35;;
10007;SDS011;5043;41.766;26.204;2023-08-01T01:00:01;7.07;;;6.47;;
10007;SDS011;5043;41.766;26.204;2023-08-01T01:02:27;10.55;;;6.55;;
10007;SDS011;5043;41.766;26.204;2023-08-01T01:04:52;9.43;;;6.50;;
10007;SDS011;5043;41.766;26.204;2023-08-01T01:07:18;6.47;;;5.90;;
10007;SDS011;5043;41.766;26.204;2023-08-01T01:09:44;10.25;;;6.45;;
10007;SDS011;5043;41.766;26.204;2023-08-01T01:12:09;7.07;;;6.40;;
10007;SDS011;5043;41.766;26.204;2023-08-01T01:14:35;8.02;;;6.25;;
10007;SDS011;5043;41.766;26.204;2023-08-01T01:17:00;7.72;;;6.55;;
10007;SDS011;5043;41.766;26.204;2023-08-01T01:19:26;6.72;;;6.07;;
10007;SDS011;5043;41.766;26.204;2023-08-01T01:21:51;7.03;;;6.43;;
10007;SDS011;5043;41.766;26.204;2023-08-01T01:24:17;13.63;;;6.85;;
10007;SDS011;5043;41.766;26.204;2023-08-01T01:26:44;7.45;;;6.72;;
10007;SDS011;5043;41.766;26.204;2023-08-01T01:29:11;6.40;;;5.82;;
10007;SDS011;5043;41.766;26.204;2023-08-01T01:31:37;9.00;;;6.40;;
10007;SDS011;5043;41.766;26.204;2023-08-01T01:34:03;7.22;;;6.63;;
10007;SDS011;5043;41.766;26.204;2023-08-01T01:36:29;7.15;;;6.63;;
10007;SDS011;5043;41.766;26.204;2023-08-01T01:38:55;7.32;;;6.45;;
10007;SDS011;5043;41.766;26.204;2023-08-01T01:41:21;6.68;;;6.07;;
10007;SDS011;5043;41.766;26.204;2023-08-01T01:43:47;6.15;;;5.65;;
10007;SDS011;5043;41.766;26.204;2023-08-01T01:46:13;6.75;;;6.10;;
10007;SDS011;5043;41.766;26.204;2023-08-01T01:48:38;6.07;;;5.53;;
10007;SDS011;5043;41.766;26.204;2023-08-01T01:51:04;5.40;;;4.85;;
10007;SDS011;5043;41.766;26.204;2023-08-01T01:53:29;6.05;;;5.57;;
10007;SDS011;5043;41.766;26.204;2023-08-01T01:55:55;6.40;;;5.85;;
10007;SDS011;5043;41.766;26.204;2023-08-01T01:58:20;6.18;;;5.65;;
10007;SDS011;5043;41.766;26.204;2023-08-01T02:00:46;6.50;;;6.00;;
10007;SDS011;5043;41.766;26.204;2023-08-01T02:03:11;7.85;;;5.63;;
10007;SDS011;5043;41.766;26.204;2023-08-01T02:05:39;6.28;;;5.78;;
10007;SDS011;5043;41.766;26.204;2023-08-01T02:08:05;6.53;;;5.93;;
10007;SDS011;5043;41.766;26.204;2023-08-01T02:10:30;6.03;;;5.53;;
10007;SDS011;5043;41.766;26.204;2023-08-01T02:12:56;6.60;;;6.00;;
10007;SDS011;5043;41.766;26.204;2023-08-01T02:15:21;7.68;;;5.53;;
10007;SDS011;5043;41.766;26.204;2023-08-01T02:17:46;6.57;;;5.97;;
10007;SDS011;5043;41.766;26.204;2023-08-01T02:20:12;7.47;;;6.32;;
10007;SDS011;5043;41.766;26.204;2023-08-01T02:22:37;5.93;;;5.47;;
10007;SDS011;5043;41.766;26.204;2023-08-01T02:25:03;6.13;;;5.63;;
10007;SDS011;5043;41.766;26.204;2023-08-01T02:27:28;6.13;;;5.40;;
10007;SDS011;5043;41.766;26.204;2023-08-01T02:29:54;6.55;;;6.03;;
10007;SDS011;5043;41.766;26.204;2023-08-01T02:32:19;6.75;;;6.15;;
10007;SDS011;5043;41.766;26.204;2023-08-01T02:34:45;8.25;;;5.80;;
10007;SDS011;5043;41.766;26.204;2023-08-01T02:37:10;6.93;;;5.80;;
10007;SDS011;5043;41.766;26.204;2023-08-01T02:39:35;5.80;;;5.35;;
10007;SDS011;5043;41.766;26.204;2023-08-01T02:42:01;6.60;;;6.10;;
10007;SDS011;5043;41.766;26.204;2023-08-01T02:44:27;8.35;;;6.43;;
10007;SDS011;5043;41.766;26.204;2023-08-01T02:46:54;6.40;;;5.90;;
10007;SDS011;5043;41.766;26.204;2023-08-01T02:49:19;6.00;;;5.47;;
10007;SDS011;5043;41.766;26.204;2023-08-01T02:51:45;7.75;;;5.38;;
10007;SDS011;5043;41.766;26.204;2023-08-01T02:54:10;7.50;;;6.32;;
10007;SDS011;5043;41.766;26.204;2023-08-01T02:56:35;6.90;;;6.30;;
10007;SDS011;5043;41.766;26.204;2023-08-01T02:59:06;7.22;;;5.88;;
10007;SDS011;5043;41.766;26.204;2023-08-01T03:01:33;5.85;;;5.40;;
10007;SDS011;5043;41.766;26.204;2023-08-01T03:04:00;9.18;;;5.72;;
10007;SDS011;5043;41.766;26.204;2023-08-01T03:06:25;6.07;;;5.57;;
10007;SDS011;5043;41.766;26.204;2023-08-01T03:08:51;6.70;;;6.13;;
10007;SDS011;5043;41.766;26.204;2023-08-01T03:11:16;6.50;;;5.90;;
10007;SDS011;5043;41.766;26.204;2023-08-01T03:13:42;6.53;;;5.93;;
10007;SDS011;5043;41.766;26.204;2023-08-01T03:16:07;6.53;;;5.93;;
10007;SDS011;5043;41.766;26.204;2023-08-01T03:18:35;9.57;;;6.30;;
10007;SDS011;5043;41.766;26.204;2023-08-01T03:21:00;6.65;;;6.05;;
10007;SDS011;5043;41.766;26.204;2023-08-01T03:23:27;6.90;;;6.05;;
10007;SDS011;5043;41.766;26.204;2023-08-01T03:25:52;5.82;;;5.43;;
10007;SDS011;5043;41.766;26.204;2023-08-01T03:28:18;6.35;;;5.88;;
10007;SDS011;5043;41.766;26.204;2023-08-01T03:30:43;6.47;;;5.88;;
10007;SDS011;5043;41.766;26.204;2023-08-01T03:33:08;6.70;;;6.05;;
10007;SDS011;5043;41.766;26.204;2023-08-01T03:35:34;7.15;;;6.53;;
10007;SDS011;5043;41.766;26.204;2023-08-01T03:37:59;10.93;;;8.45;;
10007;SDS011;5043;41.766;26.204;2023-08-01T03:40:25;8.57;;;7.50;;
10007;SDS011;5043;41.766;26.204;2023-08-01T03:42:50;8.43;;;7.63;;
10007;SDS011;5043;41.766;26.204;2023-08-01T03:45:16;9.43;;;7.25;;
10007;SDS011;5043;41.766;26.204;2023-08-01T03:47:41;7.68;;;6.90;;
10007;SDS011;5043;41.766;26.204;2023-08-01T03:50:07;7.88;;;7.20;;
10007;SDS011;5043;41.766;26.204;2023-08-01T03:52:32;7.20;;;6.60;;
10007;SDS011;5043;41.766;26.204;2023-08-01T03:54:58;8.48;;;7.68;;
10007;SDS011;5043;41.766;26.204;2023-08-01T03:57:23;7.72;;;6.97;;
10007;SDS011;5043;41.766;26.204;2023-08-01T03:59:48;8.23;;;7.47;;
10007;SDS011;5043;41.766;26.204;2023-08-01T04:02:14;8.80;;;8.00;;
10007;SDS011;5043;41.766;26.204;2023-08-01T04:04:39;7.85;;;7.15;;
10007;SDS011;5043;41.766;26.204;2023-08-01T04:07:05;8.15;;;7.45;;
10007;SDS011;5043;41.766;26.204;2023-08-01T04:09:30;8.27;;;7.57;;
10007;SDS011;5043;41.766;26.204;2023-08-01T04:11:56;7.10;;;6.50;;
10007;SDS011;5043;41.766;26.204;2023-08-01T04:14:22;8.02;;;7.32;;
10007;SDS011;5043;41.766;26.204;2023-08-01T04:16:48;7.22;;;6.63;;
10007;SDS011;5043;41.766;26.204;2023-08-01T04:19:13;9.75;;;6.95;;
10007;SDS011;5043;41.766;26.204;2023-08-01T04:21:38;8.30;;;7.60;;
10007;SDS011;5043;41.766;26.204;2023-08-01T04:24:04;7.32;;;6.63;;
10007;SDS011;5043;41.766;26.204;2023-08-01T04:26:29;8.20;;;7.50;;
10007;SDS011;5043;41.766;26.204;2023-08-01T04:28:55;7.45;;;6.80;;
10007;SDS011;5043;41.766;26.204;2023-08-01T04:31:20;6.97;;;6.38;;
10007;SDS011;5043;41.766;26.204;2023-08-01T04:33:46;7.70;;;6.93;;
10007;SDS011;5043;41.766;26.204;2023-08-01T04:36:11;8.35;;;6.05;;
10007;SDS011;5043;41.766;26.204;2023-08-01T04:38:37;9.20;;;7.10;;
10007;SDS011;5043;41.766;26.204;2023-08-01T04:41:02;8.25;;;7.45;;
10007;SDS011;5043;41.766;26.204;2023-08-01T04:43:28;8.40;;;7.50;;
10007;SDS011;5043;41.766;26.204;2023-08-01T04:45:53;8.20;;;7.25;;
10007;SDS011;5043;41.766;26.204;2023-08-01T04:48:18;6.70;;;6.10;;
10007;SDS011;5043;41.766;26.204;2023-08-01T04:50:44;6.78;;;6.28;;
10007;SDS011;5043;41.766;26.204;2023-08-01T04:53:10;7.07;;;6.47;;
10007;SDS011;5043;41.766;26.204;2023-08-01T04:55:37;7.60;;;6.53;;
10007;SDS011;5043;41.766;26.204;2023-08-01T04:58:02;7.75;;;6.95;;
10007;SDS011;5043;41.766;26.204;2023-08-01T05:00:28;10.43;;;7.95;;
10007;SDS011;5043;41.766;26.204;2023-08-01T05:02:53;7.82;;;7.13;;
10007;SDS011;5043;41.766;26.204;2023-08-01T05:05:18;16.83;;;7.78;;
10007;SDS011;5043;41.766;26.204;2023-08-01T05:07:44;9.32;;;7.60;;
10007;SDS011;5043;41.766;26.204;2023-08-01T05:10:09;9.07;;;7.25;;
10007;SDS011;5043;41.766;26.204;2023-08-01T05:12:35;8.20;;;7.35;;
10007;SDS011;5043;41.766;26.204;2023-08-01T05:15:00;8.05;;;7.25;;
10007;SDS011;5043;41.766;26.204;2023-08-01T05:17:25;10.65;;;8.23;;
10007;SDS011;5043;41.766;26.204;2023-08-01T05:19:51;9.55;;;7.40;;
10007;SDS011;5043;41.766;26.204;2023-08-01T05:22:16;7.80;;;6.78;;
10007;SDS011;5043;41.766;26.204;2023-08-01T05:24:42;6.70;;;6.20;;
10007;SDS011;5043;41.766;26.204;2023-08-01T05:27:07;9.65;;;6.78;;
10007;SDS011;5043;41.766;26.204;2023-08-01T05:29:33;9.57;;;6.88;;
10007;SDS011;5043;41.766;26.204;2023-08-01T05:31:58;7.22;;;6.63;;
10007;SDS011;5043;41.766;26.204;2023-08-01T05:34:23;7.85;;;6.78;;
10007;SDS011;5043;41.766;26.204;2023-08-01T05:36:49;7.35;;;6.70;;
10007;SDS011;5043;41.766;26.204;2023-08-01T05:39:15;8.57;;;6.43;;
10007;SDS011;5043;41.766;26.204;2023-08-01T05:41:41;7.63;;;6.93;;
10007;SDS011;5043;41.766;26.204;2023-08-01T05:44:07;8.57;;;6.90;;
10007;SDS011;5043;41.766;26.204;2023-08-01T05:46:32;9.52;;;7.18;;
10007;SDS011;5043;41.766;26.204;2023-08-01T05:48:58;8.50;;;7.63;;
10007;SDS011;5043;41.766;26.204;2023-08-01T05:51:23;8.23;;;7.40;;
10007;SDS011;5043;41.766;26.204;2023-08-01T05:53:49;7.05;;;6.35;;
10007;SDS011;5043;41.766;26.204;2023-08-01T05:56:14;7.53;;;6.80;;
10007;SDS011;5043;41.766;26.204;2023-08-01T05:58:40;7.07;;;6.45;;
10007;SDS011;5043;41.766;26.204;2023-08-01T06:01:05;7.13;;;6.53;;
10007;SDS011;5043;41.766;26.204;2023-08-01T06:03:31;7.53;;;6.70;;
10007;SDS011;5043;41.766;26.204;2023-08-01T06:05:56;7.97;;;7.38;;
10007;SDS011;5043;41.766;26.204;2023-08-01T06:08:22;8.15;;;6.97;;
10007;SDS011;5043;41.766;26.204;2023-08-01T06:10:47;8.52;;;7.70;;
10007;SDS011;5043;41.766;26.204;2023-08-01T06:13:13;7.53;;;6.93;;
10007;SDS011;5043;41.766;26.204;2023-08-01T06:15:38;7.78;;;7.05;;
10007;SDS011;5043;41.766;26.204;2023-08-01T06:18:04;10.43;;;7.20;;
10007;SDS011;5043;41.766;26.204;2023-08-01T06:20:29;11.15;;;7.55;;
10007;SDS011;5043;41.766;26.204;2023-08-01T06:22:55;7.93;;;7.25;;
10007;SDS011;5043;41.766;26.204;2023-08-01T06:25:20;8.05;;;7.38;;
10007;SDS011;5043;41.766;26.204;2023-08-01T06:27:46;9.05;;;6.93;;
10007;SDS011;5043;41.766;26.204;2023-08-01T06:30:11;8.82;;;7.30;;
10007;SDS011;5043;41.766;26.204;2023-08-01T06:32:37;7.38;;;6.68;;
10007;SDS011;5043;41.766;26.204;2023-08-01T06:35:03;7.20;;;6.50;;
10007;SDS011;5043;41.766;26.204;2023-08-01T06:37:29;10.95;;;6.95;;
10007;SDS011;5043;41.766;26.204;2023-08-01T06:39:55;6.82;;;6.32;;
10007;SDS011;5043;41.766;26.204;2023-08-01T06:42:22;7.25;;;6.57;;
10007;SDS011;5043;41.766;26.204;2023-08-01T06:44:47;9.10;;;5.45;;
10007;SDS011;5043;41.766;26.204;2023-08-01T06:47:13;5.60;;;5.20;;
10007;SDS011;5043;41.766;26.204;2023-08-01T06:49:38;5.97;;;5.47;;
10007;SDS011;5043;41.766;26.204;2023-08-01T06:52:04;5.28;;;4.88;;
10007;SDS011;5043;41.766;26.204;2023-08-01T06:54:29;5.72;;;5.22;;
10007;SDS011;5043;41.766;26.204;2023-08-01T06:56:55;6.55;;;5.95;;
10007;SDS011;5043;41.766;26.204;2023-08-01T06:59:20;6.25;;;5.70;;
10007;SDS011;5043;41.766;26.204;2023-08-01T07:01:46;6.75;;;6.20;;
10007;SDS011;5043;41.766;26.204;2023-08-01T07:04:11;6.80;;;6.20;;
10007;SDS011;5043;41.766;26.204;2023-08-01T07:06:37;9.25;;;6.40;;
10007;SDS011;5043;41.766;26.204;2023-08-01T07:09:03;6.75;;;6.25;;
10007;SDS011;5043;41.766;26.204;2023-08-01T07:11:29;8.00;;;6.05;;
10007;SDS011;5043;41.766;26.204;2023-08-01T07:13:54;8.02;;;6.32;;
10007;SDS011;5043;41.766;26.204;2023-08-01T07:16:20;6.68;;;6.18;;
10007;SDS011;5043;41.766;26.204;2023-08-01T07:18:45;6.43;;;5.88;;
10007;SDS011;5043;41.766;26.204;2023-08-01T07:21:12;7.25;;;6.65;;
10007;SDS011;5043;41.766;26.204;2023-08-01T07:23:38;6.30;;;5.82;;
10007;SDS011;5043;41.766;26.204;2023-08-01T07:26:03;6.93;;;6.22;;
10007;SDS011;5043;41.766;26.204;2023-08-01T07:28:29;6.72;;;6.13;;
10007;SDS011;5043;41.766;26.204;2023-08-01T07:31:01;7.68;;;6.85;;
10007;SDS011;5043;41.766;26.204;2023-08-01T07:33:29;6.97;;;6.40;;
10007;SDS011;5043;41.766;26.204;2023-08-01T07:35:55;6.63;;;6.03;;
10007;SDS011;5043;41.766;26.204;2023-08-01T07:38:20;6.50;;;5.93;;
10007;SDS011;5043;41.766;26.204;2023-08-01T07:40:46;7.80;;;6.93;;
10007;SDS011;5043;41.766;26.204;2023-08-01T07:43:11;6.90;;;6.20;;
10007;SDS011;5043;41.766;26.204;2023-08-01T07:45:38;6.85;;;6.18;;
10007;SDS011;5043;41.766;26.204;2023-08-01T07:48:03;6.97;;;6.38;;
10007;SDS011;5043;41.766;26.204;2023-08-01T07:50:29;7.15;;;6.45;;
10007;SDS011;5043;41.766;26.204;2023-08-01T07:52:55;7.60;;;6.80;;
10007;SDS011;5043;41.766;26.204;2023-08-01T07:55:21;5.95;;;5.55;;
10007;SDS011;5043;41.766;26.204;2023-08-01T07:57:47;7.15;;;6.22;;
10007;SDS011;5043;41.766;26.204;2023-08-01T08:00:13;7.15;;;6.45;;
10007;SDS011;5043;41.766;26.204;2023-08-01T08:02:39;6.45;;;5.57;;
10007;SDS011;5043;41.766;26.204;2023-08-01T08:05:06;8.88;;;6.15;;
10007;SDS011;5043;41.766;26.204;2023-08-01T08:07:31;6.85;;;5.63;;
10007;SDS011;5043;41.766;26.204;2023-08-01T08:09:57;8.38;;;7.68;;
10007;SDS011;5043;41.766;26.204;2023-08-01T08:12:22;9.52;;;5.97;;
10007;SDS011;5043;41.766;26.204;2023-08-01T08:14:48;6.68;;;5.68;;
10007;SDS011;5043;41.766;26.204;2023-08-01T08:17:14;9.27;;;6.30;;
10007;SDS011;5043;41.766;26.204;2023-08-01T08:19:40;6.65;;;5.95;;
10007;SDS011;5043;41.766;26.204;2023-08-01T08:22:05;6.65;;;5.82;;
10007;SDS011;5043;41.766;26.204;2023-08-01T08:24:31;7.10;;;6.40;;
10007;SDS011;5043;41.766;26.204;2023-08-01T08:26:56;6.20;;;5.70;;
10007;SDS011;5043;41.766;26.204;2023-08-01T08:29:22;6.47;;;5.60;;
10007;SDS011;5043;41.766;26.204;2023-08-01T08:31:48;5.72;;;5.18;;
10007;SDS011;5043;41.766;26.204;2023-08-01T08:34:13;7.35;;;5.28;;
10007;SDS011;5043;41.766;26.204;2023-08-01T08:36:39;5.38;;;4.78;;
10007;SDS011;5043;41.766;26.204;2023-08-01T08:39:04;6.18;;;5.68;;
10007;SDS011;5043;41.766;26.204;2023-08-01T08:41:30;6.28;;;5.55;;
10007;SDS011;5043;41.766;26.204;2023-08-01T08:44:01;9.52;;;5.32;;
10007;SDS011;5043;41.766;26.204;2023-08-01T08:46:32;6.53;;;5.30;;
10007;SDS011;5043;41.766;26.204;2023-08-01T08:49:01;6.10;;;5.60;;
10007;SDS011;5043;41.766;26.204;2023-08-01T08:51:28;6.80;;;5.63;;
10007;SDS011;5043;41.766;26.204;2023-08-01T08:53:54;6.25;;;5.65;;
10007;SDS011;5043;41.766;26.204;2023-08-01T08:56:19;6.28;;;5.38;;
10007;SDS011;5043;41.766;26.204;2023-08-01T08:58:45;8.63;;;5.60;;
10007;SDS011;5043;41.766;26.204;2023-08-01T09:01:12;6.35;;;5.80;;
10007;SDS011;5043;41.766;26.204;2023-08-01T09:03:38;6.00;;;5.57;;
10007;SDS011;5043;41.766;26.204;2023-08-01T09:06:37;6.47;;;5.22;;
10007;SDS011;5043;41.766;26.204;2023-08-01T09:09:04;8.70;;;5.68;;
10007;SDS011;5043;41.766;26.204;2023-08-01T09:11:45;6.90;;;6.20;;
10007;SDS011;5043;41.766;26.204;2023-08-01T09:14:12;6.35;;;5.90;;
10007;SDS011;5043;41.766;26.204;2023-08-01T09:16:39;5.93;;;5.30;;
10007;SDS011;5043;41.766;26.204;2023-08-01T09:19:05;5.47;;;5.07;;
10007;SDS011;5043;41.766;26.204;2023-08-01T09:21:32;8.25;;;5.97;;
10007;SDS011;5043;41.766;26.204;2023-08-01T09:24:22;4.93;;;4.53;;
10007;SDS011;5043;41.766;26.204;2023-08-01T09:26:48;6.05;;;5.22;;
10007;SDS011;5043;41.766;26.204;2023-08-01T09:29:18;7.78;;;5.13;;
10007;SDS011;5043;41.766;26.204;2023-08-01T09:31:45;5.45;;;4.80;;
10007;SDS011;5043;41.766;26.204;2023-08-01T09:34:24;4.95;;;4.55;;
10007;SDS011;5043;41.766;26.204;2023-08-01T09:36:51;9.82;;;4.63;;
10007;SDS011;5043;41.766;26.204;2023-08-01T09:39:22;4.82;;;4.43;;
10007;SDS011;5043;41.766;26.204;2023-08-01T09:41:57;5.75;;;5.35;;
10007;SDS011;5043;41.766;26.204;2023-08-01T09:44:24;5.72;;;4.72;;
10007;SDS011;5043;41.766;26.204;2023-08-01T09:47:02;5.75;;;4.82;;
10007;SDS011;5043;41.766;26.204;2023-08-01T09:49:29;5.78;;;4.30;;
10007;SDS011;5043;41.766;26.204;2023-08-01T09:51:55;6.50;;;4.97;;
10007;SDS011;5043;41.766;26.204;2023-08-01T09:54:22;4.97;;;4.57;;
10007;SDS011;5043;41.766;26.204;2023-08-01T09:56:49;5.07;;;4.68;;
10007;SDS011;5043;41.766;26.204;2023-08-01T09:59:18;6.63;;;4.68;;
10007;SDS011;5043;41.766;26.204;2023-08-01T10:01:49;5.18;;;4.68;;
10007;SDS011;5043;41.766;26.204;2023-08-01T10:06:58;5.57;;;5.07;;
10007;SDS011;5043;41.766;26.204;2023-08-01T10:09:25;4.95;;;4.55;;
10007;SDS011;5043;41.766;26.204;2023-08-01T10:11:52;5.28;;;4.88;;
10007;SDS011;5043;41.766;26.204;2023-08-01T10:14:21;5.00;;;4.43;;
10007;SDS011;5043;41.766;26.204;2023-08-01T10:16:47;4.70;;;4.32;;
10007;SDS011;5043;41.766;26.204;2023-08-01T10:19:13;4.80;;;4.40;;
10007;SDS011;5043;41.766;26.204;2023-08-01T10:21:40;4.88;;;4.40;;
10007;SDS011;5043;41.766;26.204;2023-08-01T10:24:08;4.55;;;4.15;;
10007;SDS011;5043;41.766;26.204;2023-08-01T10:26:34;4.85;;;4.43;;
10007;SDS011;5043;41.766;26.204;2023-08-01T10:29:00;4.25;;;3.90;;
10007;SDS011;5043;41.766;26.204;2023-08-01T10:31:27;5.50;;;4.13;;
10007;SDS011;5043;41.766;26.204;2023-08-01T10:33:52;5.68;;;4.10;;
10007;SDS011;5043;41.766;26.204;2023-08-01T10:36:29;4.53;;;4.20;;
10007;SDS011;5043;41.766;26.204;2023-08-01T10:38:58;4.63;;;4.22;;
10007;SDS011;5043;41.766;26.204;2023-08-01T10:41:34;4.57;;;4.18;;
10007;SDS011;5043;41.766;26.204;2023-08-01T10:44:07;4.35;;;4.05;;
10007;SDS011;5043;41.766;26.204;2023-08-01T10:46:50;3.90;;;3.60;;
10007;SDS011;5043;41.766;26.204;2023-08-01T10:49:17;4.43;;;4.03;;
10007;SDS011;5043;41.766;26.204;2023-08-01T10:51:44;4.20;;;3.90;;
10007;SDS011;5043;41.766;26.204;2023-08-01T10:54:23;4.45;;;4.03;;
10007;SDS011;5043;41.766;26.204;2023-08-01T10:56:51;5.78;;;4.18;;
10007;SDS011;5043;41.766;26.204;2023-08-01T10:59:19;4.65;;;4.35;;
10007;SDS011;5043;41.766;26.204;2023-08-01T11:01:47;4.25;;;3.85;;
10007;SDS011;5043;41.766;26.204;2023-08-01T11:04:17;4.60;;;3.80;;
10007;SDS011;5043;41.766;26.204;2023-08-01T11:06:53;3.97;;;3.67;;
10007;SDS011;5043;41.766;26.204;2023-08-01T11:09:23;3.80;;;3.35;;
10007;SDS011;5043;41.766;26.204;2023-08-01T11:11:51;3.85;;;3.55;;
10007;SDS011;5043;41.766;26.204;2023-08-01T11:14:21;4.88;;;3.78;;
10007;SDS011;5043;41.766;26.204;2023-08-01T11:16:49;3.97;;;3.53;;
10007;SDS011;5043;41.766;26.204;2023-08-01T11:19:22;5.00;;;4.20;;
10007;SDS011;5043;41.766;26.204;2023-08-01T11:21:49;3.88;;;3.55;;
10007;SDS011;5043;41.766;26.204;2023-08-01T11:24:17;4.40;;;3.63;;
10007;SDS011;5043;41.766;26.204;2023-08-01T11:26:43;3.60;;;3.38;;
10007;SDS011;5043;41.766;26.204;2023-08-01T11:29:11;3.97;;;3.60;;
10007;SDS011;5043;41.766;26.204;2023-08-01T11:31:37;3.58;;;3.25;;
10007;SDS011;5043;41.766;26.204;2023-08-01T11:34:04;6.43;;;3.40;;
10007;SDS011;5043;41.766;26.204;2023-08-01T11:36:30;4.70;;;3.88;;
10007;SDS011;5043;41.766;26.204;2023-08-01T11:38:57;3.35;;;3.15;;
10007;SDS011;5043;41.766;26.204;2023-08-01T11:41:24;3.50;;;3.20;;
10007;SDS011;5043;41.766;26.204;2023-08-01T11:43:50;3.95;;;3.65;;
10007;SDS011;5043;41.766;26.204;2023-08-01T11:46:16;3.55;;;3.33;;
10007;SDS011;5043;41.766;26.204;2023-08-01T11:48:44;3.45;;;3.25;;
10007;SDS011;5043;41.766;26.204;2023-08-01T11:51:11;3.60;;;3.40;;
10007;SDS011;5043;41.766;26.204;2023-08-01T11:53:37;4.97;;;3.40;;
10007;SDS011;5043;41.766;26.204;2023-08-01T11:56:04;3.53;;;3.22;;
10007;SDS011;5043;41.766;26.204;2023-08-01T12:03:28;3.90;;;3.60;;
10007;SDS011;5043;41.766;26.204;2023-08-01T12:06:04;4.82;;;3.92;;
10007;SDS011;5043;41.766;26.204;2023-08-01T12:08:32;5.28;;;3.15;;
10007;SDS011;5043;41.766;26.204;2023-08-01T12:10:58;3.58;;;3.38;;
10007;SDS011;5043;41.766;26.204;2023-08-01T12:13:25;3.50;;;3.20;;
10007;SDS011;5043;41.766;26.204;2023-08-01T12:15:51;3.13;;;2.92;;
10007;SDS011;5043;41.766;26.204;2023-08-01T12:18:25;3.22;;;3.03;;
10007;SDS011;5043;41.766;26.204;2023-08-01T12:20:52;3.70;;;3.40;;
10007;SDS011;5043;41.766;26.204;2023-08-01T12:23:18;2.70;;;2.50;;
10007;SDS011;5043;41.766;26.204;2023-08-01T12:25:44;3.00;;;2.80;;
10007;SDS011;5043;41.766;26.204;2023-08-01T12:28:10;5.07;;;3.30;;
10007;SDS011;5043;41.766;26.204;2023-08-01T12:30:38;3.40;;;3.10;;
10007;SDS011;5043;41.766;26.204;2023-08-01T12:33:05;3.10;;;2.90;;
10007;SDS011;5043;41.766;26.204;2023-08-01T12:35:30;3.38;;;3.10;;
10007;SDS011;5043;41.766;26.204;2023-08-01T12:37:56;3.20;;;3.00;;
10007;SDS011;5043;41.766;26.204;2023-08-01T12:40:21;3.13;;;2.88;;
10007;SDS011;5043;41.766;26.204;2023-08-01T12:42:47;3.28;;;2.75;;
10007;SDS011;5043;41.766;26.204;2023-08-01T12:45:12;3.17;;;2.97;;
10007;SDS011;5043;41.766;26.204;2023-08-01T12:47:38;3.63;;;3.33;;
10007;SDS011;5043;41.766;26.204;2023-08-01T12:50:03;3.30;;;3.10;;
10007;SDS011;5043;41.766;26.204;2023-08-01T12:52:29;3.20;;;3.00;;
10007;SDS011;5043;41.766;26.204;2023-08-01T12:54:55;3.35;;;3.05;;
10007;SDS011;5043;41.766;26.204;2023-08-01T12:57:20;3.53;;;3.22;;
10007;SDS011;5043;41.766;26.204;2023-08-01T12:59:46;3.33;;;3.13;;
10007;SDS011;5043;41.766;26.204;2023-08-01T13:02:13;3.10;;;2.90;;
10007;SDS011;5043;41.766;26.204;2023-08-01T13:04:39;3.00;;;2.80;;
10007;SDS011;5043;41.766;26.204;2023-08-01T13:07:04;3.50;;;3.30;;
10007;SDS011;5043;41.766;26.204;2023-08-01T13:09:30;3.50;;;3.10;;
10007;SDS011;5043;41.766;26.204;2023-08-01T13:11:56;3.70;;;3.40;;
10007;SDS011;5043;41.766;26.204;2023-08-01T13:14:21;3.50;;;3.00;;
10007;SDS011;5043;41.766;26.204;2023-08-01T13:16:48;3.95;;;3.60;;
10007;SDS011;5043;41.766;26.204;2023-08-01T13:19:13;4.28;;;3.33;;
10007;SDS011;5043;41.766;26.204;2023-08-01T13:21:39;5.07;;;3.60;;
10007;SDS011;5043;41.766;26.204;2023-08-01T13:24:04;3.35;;;3.15;;
10007;SDS011;5043;41.766;26.204;2023-08-01T13:26:33;3.95;;;3.65;;
10007;SDS011;5043;41.766;26.204;2023-08-01T13:28:59;4.07;;;3.72;;
10007;SDS011;5043;41.766;26.204;2023-08-01T13:31:28;3.85;;;3.65;;
10007;SDS011;5043;41.766;26.204;2023-08-01T13:33:54;3.92;;;3.63;;
10007;SDS011;5043;41.766;26.204;2023-08-01T13:36:20;3.75;;;3.55;;
10007;SDS011;5043;41.766;26.204;2023-08-01T13:38:46;4.05;;;3.85;;
10007;SDS011;5043;41.766;26.204;2023-08-01T13:41:11;4.28;;;3.97;;
10007;SDS011;5043;41.766;26.204;2023-08-01T13:43:36;4.13;;;3.78;;
10007;SDS011;5043;41.766;26.204;2023-08-01T13:46:15;4.32;;;4.03;;
10007;SDS011;5043;41.766;26.204;2023-08-01T13:48:42;4.60;;;4.30;;
10007;SDS011;5043;41.766;26.204;2023-08-01T13:51:08;4.90;;;4.60;;
10007;SDS011;5043;41.766;26.204;2023-08-01T13:53:33;4.60;;;4.15;;
10007;SDS011;5043;41.766;26.204;2023-08-01T13:55:59;4.38;;;4.18;;
10007;SDS011;5043;41.766;26.204;2023-08-01T13:58:25;4.30;;;4.10;;
10007;SDS011;5043;41.766;26.204;2023-08-01T14:00:50;4.13;;;3.83;;
10007;SDS011;5043;41.766;26.204;2023-08-01T14:03:16;4.13;;;3.92;;
10007;SDS011;5043;41.766;26.204;2023-08-01T14:05:41;4.18;;;3.97;;
10007;SDS011;5043;41.766;26.204;2023-08-01T14:08:07;5.82;;;4.00;;
10007;SDS011;5043;41.766;26.204;2023-08-01T14:10:32;4.60;;;4.20;;
10007;SDS011;5043;41.766;26.204;2023-08-01T14:12:58;4.43;;;4.03;;
10007;SDS011;5043;41.766;26.204;2023-08-01T14:15:23;4.30;;;4.10;;
10007;SDS011;5043;41.766;26.204;2023-08-01T14:17:49;4.00;;;3.78;;
10007;SDS011;5043;41.766;26.204;2023-08-01T14:20:14;5.60;;;3.47;;
10007;SDS011;5043;41.766;26.204;2023-08-01T14:22:41;4.10;;;3.70;;
10007;SDS011;5043;41.766;26.204;2023-08-01T14:25:07;3.97;;;3.67;;
10007;SDS011;5043;41.766;26.204;2023-08-01T14:27:34;5.40;;;3.55;;
10007;SDS011;5043;41.766;26.204;2023-08-01T14:29:59;3.75;;;3.45;;
10007;SDS011;5043;41.766;26.204;2023-08-01T14:32:25;3.67;;;3.40;;
10007;SDS011;5043;41.766;26.204;2023-08-01T14:34:50;3.38;;;3.17;;
10007;SDS011;5043;41.766;26.204;2023-08-01T14:37:16;3.47;;;3.28;;
10007;SDS011;5043;41.766;26.204;2023-08-01T14:39:41;3.30;;;3.10;;
10007;SDS011;5043;41.766;26.204;2023-08-01T14:42:06;3.35;;;3.15;;
10007;SDS011;5043;41.766;26.204;2023-08-01T14:44:32;3.25;;;3.05;;
10007;SDS011;5043;41.766;26.204;2023-08-01T14:46:57;3.10;;;2.90;;
10007;SDS011;5043;41.766;26.204;2023-08-01T14:49:23;3.08;;;2.88;;
10007;SDS011;5043;41.766;26.204;2023-08-01T14:51:48;2.80;;;2.60;;